Time;durP1;ratioP1;P1;durP2;ratioP2;P2;SDS_P1;SDS_P2;PMS_P1;PMS_P2;Temp;Humidity;BMP_temperature;BMP_pressure;BME280_temperature;BME280_humidity;BME280_pressure;Samples;Min_cycle;Max_cycle;Signal;HPM_P1;HPM_P2
2022/02/02 00:01:14;;;;;;;23.25;3.88;;;8.90;99.90;;;;;;5034292;28;20036;-59
2022/02/02 00:03:44;;;;;;;13.07;3.17;;;8.90;99.90;;;;;;5032893;28;20109;-59
2022/02/02 00:06:25;;;;;;;18.67;3.47;;;8.90;99.90;;;;;;5034316;28;20032;-59
2022/02/02 00:09:05;;;;;;;13.10;3.50;;;9.00;99.90;;;;;;5034926;28;20348;-59
2022/02/02 00:14:11;;;;;;;20.48;3.80;;;9.00;99.90;;;;;;5034785;28;20021;-59
2022/02/02 00:21:47;;;;;;;15.02;3.38;;;9.20;99.90;;;;;;5034392;28;20167;-59
2022/02/02 00:26:55;;;;;;;16.27;3.33;;;9.20;99.90;;;;;;5034479;28;20073;-59
2022/02/02 00:29:24;;;;;;;17.08;3.53;;;9.20;99.90;;;;;;5033668;28;20058;-59
2022/02/02 00:31:58;;;;;;;16.20;3.60;;;9.20;99.90;;;;;;5031887;28;20128;-59
2022/02/02 00:34:27;;;;;;;19.85;3.60;;;9.10;99.90;;;;;;5033734;28;20022;-59
2022/02/02 00:36:57;;;;;;;21.63;3.78;;;9.10;99.90;;;;;;5034358;28;20022;-59
2022/02/02 00:39:27;;;;;;;16.63;4.32;;;9.10;99.90;;;;;;5034270;28;20021;-59
2022/02/02 00:41:56;;;;;;;19.38;4.60;;;9.10;99.90;;;;;;5033401;28;20036;-59
2022/02/02 00:44:26;;;;;;;17.27;4.10;;;9.10;99.90;;;;;;5033439;28;20388;-59
2022/02/02 00:46:53;;;;;;;18.40;4.57;;;9.20;99.90;;;;;;5033285;28;20462;-59
2022/02/02 00:49:19;;;;;;;17.48;3.65;;;9.20;99.90;;;;;;5032050;28;20505;-59
2022/02/02 00:51:49;;;;;;;18.83;3.97;;;9.20;99.90;;;;;;5033376;28;20096;-59
2022/02/02 00:54:21;;;;;;;19.33;4.45;;;9.20;99.90;;;;;;5033517;28;20083;-59
2022/02/02 00:56:48;;;;;;;20.80;4.53;;;9.10;99.90;;;;;;5033961;28;20025;-59
2022/02/02 00:59:15;;;;;;;15.23;4.13;;;9.20;99.90;;;;;;5033629;28;20076;-59
2022/02/02 01:01:40;;;;;;;19.98;3.97;;;9.10;99.90;;;;;;5031810;28;20041;-59
2022/02/02 01:04:07;;;;;;;17.30;4.88;;;9.00;99.90;;;;;;5032030;28;20099;-59
2022/02/02 01:06:37;;;;;;;21.52;4.38;;;9.10;99.90;;;;;;5031692;28;20028;-59
2022/02/02 01:09:32;;;;;;;16.25;3.70;;;9.00;99.90;;;;;;5031441;28;20113;-59
2022/02/02 01:17:48;;;;;;;18.38;3.75;;;9.10;99.90;;;;;;5032523;28;20025;-59
2022/02/02 01:28:26;;;;;;;17.52;3.38;;;9.30;99.90;;;;;;5032296;28;20159;-59
2022/02/02 01:30:53;;;;;;;10.27;2.95;;;9.20;99.90;;;;;;5032467;28;20050;-59
2022/02/02 01:33:19;;;;;;;14.43;3.13;;;9.20;99.90;;;;;;5033194;28;20497;-60
2022/02/02 01:35:45;;;;;;;20.75;4.20;;;9.20;99.90;;;;;;5032714;28;20029;-60
2022/02/02 01:38:11;;;;;;;14.00;3.25;;;9.20;99.90;;;;;;5033010;28;20028;-60
2022/02/02 01:41:03;;;;;;;13.02;2.85;;;9.20;99.90;;;;;;5033059;28;20021;-60
2022/02/02 01:43:29;;;;;;;18.45;3.40;;;9.20;99.90;;;;;;5031755;28;20087;-60
2022/02/02 01:45:59;;;;;;;12.65;2.88;;;9.30;99.90;;;;;;5032241;28;20033;-60
2022/02/02 01:48:44;;;;;;;13.80;3.08;;;9.30;99.90;;;;;;5031073;28;20033;-60
2022/02/02 01:56:07;;;;;;;17.52;3.65;;;9.30;99.90;;;;;;5032516;28;20454;-60
2022/02/02 02:01:21;;;;;;;11.30;2.67;;;9.30;99.90;;;;;;5032584;28;20032;-60
2022/02/02 02:03:47;;;;;;;7.95;2.40;;;9.30;99.90;;;;;;5032374;28;20030;-60
2022/02/02 02:06:13;;;;;;;11.57;2.92;;;9.30;99.90;;;;;;5030485;28;20410;-60
2022/02/02 02:08:41;;;;;;;14.40;2.80;;;9.30;99.90;;;;;;5032320;28;20264;-60
2022/02/02 02:11:14;;;;;;;11.63;2.75;;;9.30;99.90;;;;;;5031674;28;20018;-60
2022/02/02 02:16:09;;;;;;;14.13;3.17;;;9.20;99.90;;;;;;5032099;28;20021;-60
2022/02/02 02:18:35;;;;;;;9.60;3.05;;;9.20;99.90;;;;;;5032188;28;20083;-60
2022/02/02 02:21:04;;;;;;;10.65;2.80;;;9.20;99.90;;;;;;5032066;28;20033;-60
2022/02/02 02:23:30;;;;;;;8.80;2.85;;;9.10;99.90;;;;;;5030860;28;20036;-60
2022/02/02 02:25:55;;;;;;;11.30;2.63;;;9.20;99.90;;;;;;5031805;28;20044;-60
2022/02/02 02:28:35;;;;;;;12.00;3.70;;;9.20;99.90;;;;;;5031799;28;20033;-60
2022/02/02 02:31:09;;;;;;;14.30;3.63;;;9.20;99.90;;;;;;5029394;28;20407;-60
2022/02/02 02:34:59;;;;;;;15.27;4.85;;;9.20;99.90;;;;;;5030946;28;20079;-60
2022/02/02 02:58:22;;;;;;;12.60;4.50;;;9.00;99.90;;;;;;5030206;28;20037;-60
2022/02/02 03:50:18;;;;;;;12.10;3.45;;;8.50;99.90;;;;;;5030758;28;20048;-60
2022/02/02 03:59:07;;;;;;;10.68;3.25;;;8.60;99.90;;;;;;5031350;28;20083;-60
2022/02/02 04:06:21;;;;;;;8.32;3.33;;;8.60;99.90;;;;;;5031079;28;20036;-60
2022/02/02 04:08:48;;;;;;;9.38;3.50;;;8.70;99.90;;;;;;5028992;28;20029;-60
2022/02/02 04:11:19;;;;;;;9.35;3.00;;;8.80;99.90;;;;;;5030718;28;20129;-60
2022/02/02 05:16:04;;;;;;;10.48;2.90;;;9.20;99.90;;;;;;5033479;28;20021;-60
2022/02/02 05:19:30;;;;;;;9.75;2.30;;;9.20;99.90;;;;;;5033218;28;20025;-60
2022/02/02 05:45:34;;;;;;;13.50;2.23;;;9.10;99.90;;;;;;5032621;28;20438;-60
2022/02/02 05:53:26;;;;;;;12.20;2.90;;;9.20;99.90;;;;;;5032883;28;20026;-60
2022/02/02 05:55:52;;;;;;;7.88;2.17;;;9.20;99.90;;;;;;5032332;28;20625;-60
2022/02/02 05:58:27;;;;;;;11.68;2.35;;;9.20;99.90;;;;;;5032463;28;20032;-60
2022/02/02 06:00:55;;;;;;;9.13;2.28;;;9.20;99.90;;;;;;5032587;28;20556;-60
2022/02/02 06:03:29;;;;;;;7.50;2.35;;;9.20;99.90;;;;;;5030531;28;20194;-60
2022/02/02 06:05:56;;;;;;;10.18;2.88;;;9.20;99.90;;;;;;5031574;28;20379;-60
2022/02/02 06:08:24;;;;;;;6.50;2.00;;;9.20;99.90;;;;;;5031414;28;20022;-60
2022/02/02 06:10:50;;;;;;;9.88;2.30;;;9.30;99.90;;;;;;5030706;28;20479;-60
2022/02/02 06:13:17;;;;;;;10.30;2.45;;;9.30;99.90;;;;;;5031548;28;20336;-60
2022/02/02 06:15:43;;;;;;;9.30;2.20;;;9.30;99.90;;;;;;5030284;28;20364;-60
2022/02/02 06:18:09;;;;;;;15.35;2.75;;;9.30;99.90;;;;;;5031841;28;20521;-60
2022/02/02 06:20:34;;;;;;;9.80;2.30;;;9.30;99.90;;;;;;5032349;28;20025;-60
2022/02/02 06:23:11;;;;;;;8.68;2.72;;;9.30;99.90;;;;;;5031591;28;20029;-60
2022/02/02 06:25:44;;;;;;;6.80;2.20;;;9.30;99.90;;;;;;5031569;28;20056;-60
2022/02/02 06:28:13;;;;;;;10.73;2.60;;;9.30;99.90;;;;;;5030395;28;20060;-60
2022/02/02 06:30:38;;;;;;;8.85;2.47;;;9.30;99.90;;;;;;5031621;28;20049;-60
2022/02/02 06:33:07;;;;;;;9.90;2.58;;;9.20;99.90;;;;;;5032286;28;20210;-60
2022/02/02 06:35:33;;;;;;;8.18;2.30;;;9.20;99.90;;;;;;5032351;28;20436;-60
2022/02/02 06:37:59;;;;;;;9.32;2.60;;;9.20;99.90;;;;;;5031808;28;20022;-60
2022/02/02 06:40:26;;;;;;;8.48;2.58;;;9.20;99.90;;;;;;5030329;28;20513;-60
2022/02/02 06:42:52;;;;;;;9.25;2.70;;;9.20;99.90;;;;;;5032338;28;20028;-61
2022/02/02 06:45:19;;;;;;;14.02;2.88;;;9.20;99.90;;;;;;5032048;28;20386;-60
2022/02/02 06:47:45;;;;;;;8.90;2.72;;;9.20;99.90;;;;;;5028496;28;20880;-60
2022/02/02 06:50:51;;;;;;;13.88;2.55;;;9.30;99.90;;;;;;5012124;28;20030;-60
2022/02/02 06:53:25;;;;;;;9.93;2.30;;;9.30;99.90;;;;;;5013578;28;20049;-60
2022/02/02 07:01:58;;;;;;;12.35;2.60;;;9.20;99.90;;;;;;4997960;28;20061;-61
2022/02/02 07:04:56;;;;;;;9.88;2.47;;;9.20;99.90;;;;;;5026288;28;20416;-60
2022/02/02 07:10:56;;;;;;;;;;;9.30;99.90;;;;;;5003970;28;20030;-59
2022/02/02 07:13:56;;;;;;;6.07;2.08;;;9.30;99.90;;;;;;5034936;28;20267;-59
2022/02/02 07:29:51;;;;;;;14.48;2.40;;;9.40;99.90;;;;;;5014991;28;20529;-60
2022/02/02 07:32:25;;;;;;;13.77;2.08;;;9.50;99.90;;;;;;5011499;28;20485;-60
2022/02/02 07:37:49;;;;;;;10.60;2.30;;;9.60;99.90;;;;;;5014675;28;20045;-61
2022/02/02 07:40:16;;;;;;;9.50;2.20;;;9.50;99.90;;;;;;5020482;28;20148;-61
2022/02/02 07:42:47;;;;;;;11.25;2.70;;;9.50;99.90;;;;;;5016171;28;20029;-61
2022/02/02 07:45:13;;;;;;;9.27;2.15;;;9.50;99.90;;;;;;5022820;28;20425;-61
2022/02/02 07:47:42;;;;;;;8.20;2.00;;;9.50;99.90;;;;;;5014227;28;20036;-61
2022/02/02 07:50:10;;;;;;;11.00;2.20;;;9.40;99.90;;;;;;5019893;28;20139;-60
2022/02/02 07:52:37;;;;;;;9.60;1.92;;;9.40;99.90;;;;;;5033475;28;20068;-59
2022/02/02 07:55:05;;;;;;;7.32;1.45;;;9.40;99.90;;;;;;5019026;28;20104;-59
2022/02/02 07:57:32;;;;;;;8.73;2.20;;;9.30;99.90;;;;;;5017400;28;20040;-61
2022/02/02 08:00:04;;;;;;;7.72;2.08;;;9.30;99.90;;;;;;5024776;28;20084;-60
2022/02/02 08:04:56;;;;;;;12.90;3.03;;;9.30;99.90;;;;;;5019225;28;20030;-60
2022/02/02 08:07:30;;;;;;;12.10;3.22;;;9.30;99.90;;;;;;5024501;28;20044;-61
2022/02/02 08:15:13;;;;;;;7.43;3.08;;;9.30;99.90;;;;;;5019886;28;20029;-60
2022/02/02 08:17:39;;;;;;;10.07;4.00;;;9.30;99.90;;;;;;5026519;28;20026;-60
2022/02/02 08:20:06;;;;;;;13.40;3.58;;;9.40;99.90;;;;;;5024962;28;20033;-60
2022/02/02 08:22:32;;;;;;;7.95;2.83;;;9.40;99.90;;;;;;5028551;28;20463;-60
2022/02/02 08:24:58;;;;;;;7.80;3.10;;;9.50;99.90;;;;;;5017328;28;20084;-63
2022/02/02 08:27:24;;;;;;;6.25;2.85;;;9.60;99.90;;;;;;5018232;28;20113;-60
2022/02/02 08:29:50;;;;;;;7.78;2.83;;;9.60;99.90;;;;;;5017349;28;20041;-60
2022/02/02 08:32:16;;;;;;;13.00;3.20;;;9.60;99.90;;;;;;5024454;28;20026;-60
2022/02/02 08:34:47;;;;;;;12.30;3.00;;;9.50;99.90;;;;;;5024851;28;20431;-60
2022/02/02 08:37:13;;;;;;;9.50;3.20;;;9.50;99.90;;;;;;5025029;28;20029;-60
2022/02/02 08:42:26;;;;;;;7.75;2.47;;;9.50;99.90;;;;;;5026763;28;20555;-60
2022/02/02 08:45:12;;;;;;;8.70;3.10;;;9.50;99.90;;;;;;5030334;28;20124;-61
2022/02/02 08:47:37;;;;;;;8.52;3.30;;;9.50;99.90;;;;;;5019183;28;20033;-61
2022/02/02 08:50:04;;;;;;;8.63;3.03;;;9.40;99.90;;;;;;5015624;28;20029;-60
2022/02/02 08:52:39;;;;;;;8.82;2.90;;;9.40;99.90;;;;;;5014920;28;20026;-60
2022/02/02 08:55:07;;;;;;;9.65;3.30;;;9.40;99.90;;;;;;5021188;28;20026;-58
2022/02/02 09:00:09;;;;;;;7.97;3.17;;;9.40;99.90;;;;;;5021281;28;20394;-58
2022/02/02 09:02:36;;;;;;;9.10;3.08;;;9.40;99.90;;;;;;5014700;28;20041;-57
2022/02/02 09:05:22;;;;;;;7.28;3.60;;;9.40;99.90;;;;;;5023180;28;20026;-63
2022/02/02 09:07:49;;;;;;;11.93;4.35;;;9.40;99.90;;;;;;5019035;28;20406;-64
2022/02/02 09:10:24;;;;;;;10.80;4.70;;;9.50;99.90;;;;;;5018526;28;20112;-61
2022/02/02 09:21:55;;;;;;;10.15;4.57;;;9.80;99.90;;;;;;5020022;28;20271;-62
2022/02/02 09:24:19;;;;;;;12.48;4.82;;;9.80;99.90;;;;;;5017195;28;20137;-62
2022/02/02 09:32:48;;;;;;;8.93;5.40;;;9.90;99.90;;;;;;5015218;28;20033;-58
2022/02/02 09:35:01;;;;;;;8.15;4.38;;;9.90;99.90;;;;;;5025670;28;20029;-55
2022/02/02 09:37:27;;;;;;;8.20;4.80;;;10.00;99.90;;;;;;5024037;28;20025;-54
2022/02/02 09:40:49;;;;;;;13.65;10.80;;;10.00;99.90;;;;;;5022605;28;20035;-54
2022/02/02 09:42:57;;;;;;;11.30;7.07;;;10.10;99.90;;;;;;5023631;28;20218;-54
2022/02/02 09:45:25;;;;;;;11.77;6.80;;;10.10;99.90;;;;;;5012787;28;20475;-56
2022/02/02 09:48:05;;;;;;;13.00;6.88;;;10.20;99.90;;;;;;5018320;28;20030;-57
2022/02/02 09:50:38;;;;;;;9.27;6.93;;;10.20;99.90;;;;;;5023000;28;20091;-57
2022/02/02 09:53:06;;;;;;;10.20;7.28;;;10.20;99.90;;;;;;5009539;28;20104;-58
2022/02/02 10:01:16;;;;;;;12.70;9.57;;;10.10;99.90;;;;;;5012467;28;20061;-59
2022/02/02 10:06:47;;;;;;;19.52;12.52;;;10.10;99.90;;;;;;5008680;28;20060;-58
2022/02/02 10:14:28;;;;;;;20.45;12.52;;;9.90;99.90;;;;;;5024665;28;20037;-57
2022/02/02 10:16:54;;;;;;;18.80;13.43;;;10.00;99.90;;;;;;5024199;28;20155;-56
2022/02/02 10:19:25;;;;;;;19.88;13.95;;;10.00;99.90;;;;;;5020612;28;20026;-55
2022/02/02 10:21:52;;;;;;;19.33;12.82;;;9.90;99.90;;;;;;5018428;28;20116;-56
2022/02/02 10:24:37;;;;;;;17.45;12.20;;;10.00;99.90;;;;;;5022079;28;20112;-55
2022/02/02 10:27:03;;;;;;;16.08;12.95;;;10.00;99.90;;;;;;5018997;28;20034;-54
2022/02/02 10:29:37;;;;;;;17.75;11.73;;;10.00;99.90;;;;;;5010678;28;20034;-56
2022/02/02 10:32:03;;;;;;;14.25;11.43;;;10.00;99.90;;;;;;5027654;28;20526;-54
2022/02/02 10:34:40;;;;;;;19.58;11.35;;;10.10;99.90;;;;;;5023527;28;20185;-55
2022/02/02 10:37:25;;;;;;;16.33;10.50;;;10.10;99.90;;;;;;5019887;28;20021;-54
2022/02/02 10:39:51;;;;;;;15.05;9.85;;;10.10;99.90;;;;;;5014702;28;20061;-53
2022/02/02 10:42:41;;;;;;;18.13;9.60;;;10.10;99.90;;;;;;5024258;28;20060;-54
2022/02/02 10:45:26;;;;;;;16.27;9.38;;;10.20;99.90;;;;;;5017400;28;20199;-54
2022/02/02 10:48:13;;;;;;;14.13;8.20;;;10.40;99.90;;;;;;5014360;28;20117;-54
2022/02/02 10:50:48;;;;;;;13.13;7.45;;;10.40;99.90;;;;;;5022228;28;20098;-53
2022/02/02 10:56:03;;;;;;;14.13;7.47;;;10.50;99.90;;;;;;5013812;28;20022;-53
2022/02/02 11:09:20;;;;;;;11.50;6.60;;;10.50;99.90;;;;;;4983929;28;20038;-52
2022/02/02 11:11:49;;;;;;;14.32;6.30;;;10.50;99.90;;;;;;5010423;28;20217;-52
2022/02/02 11:14:39;;;;;;;11.35;6.45;;;10.40;99.90;;;;;;5015454;28;20128;-52
2022/02/02 11:17:14;;;;;;;15.55;6.43;;;10.50;99.90;;;;;;5014552;28;20061;-51
2022/02/02 11:19:44;;;;;;;9.88;6.22;;;10.40;99.90;;;;;;5009645;28;20037;-52
2022/02/02 11:22:34;;;;;;;12.10;6.20;;;10.40;99.90;;;;;;5020945;28;20049;-51
2022/02/02 11:25:02;;;;;;;9.02;5.88;;;10.30;99.90;;;;;;5027362;28;20390;-52
2022/02/02 11:27:32;;;;;;;11.65;6.13;;;10.30;99.90;;;;;;5022599;28;20026;-51
2022/02/02 11:29:58;;;;;;;8.63;5.50;;;10.30;99.90;;;;;;5010173;28;20068;-51
2022/02/02 11:32:23;;;;;;;9.38;5.28;;;10.40;99.90;;;;;;5011321;28;20017;-51
2022/02/02 11:35:24;;;;;;;13.45;5.80;;;10.40;99.90;;;;;;5012253;28;20022;-51
2022/02/02 11:37:57;;;;;;;10.77;5.68;;;10.30;99.90;;;;;;5012341;28;20025;-52
2022/02/02 11:40:22;;;;;;;11.68;5.55;;;10.40;99.90;;;;;;5023822;28;20038;-52
2022/02/02 11:42:59;;;;;;;8.73;5.45;;;10.40;99.90;;;;;;5034757;28;20382;-52
2022/02/02 11:45:44;;;;;;;11.40;6.00;;;10.40;99.90;;;;;;5021721;28;20029;-52
2022/02/02 11:48:17;;;;;;;10.95;5.65;;;10.40;99.90;;;;;;5017486;28;20025;-52
2022/02/02 11:50:51;;;;;;;11.90;6.15;;;10.50;99.90;;;;;;5014634;28;20041;-52
2022/02/02 11:54:02;;;;;;;11.50;6.05;;;10.60;99.90;;;;;;5031760;28;20507;-52
2022/02/02 11:56:30;;;;;;;11.68;5.60;;;10.70;99.90;;;;;;5021627;28;20036;-52
2022/02/02 11:58:56;;;;;;;11.55;6.35;;;10.80;99.90;;;;;;5032907;28;20074;-52
2022/02/02 12:01:43;;;;;;;10.38;5.45;;;10.90;99.90;;;;;;5034078;28;20475;-52
2022/02/02 12:04:27;;;;;;;9.75;5.85;;;10.90;99.90;;;;;;5031999;28;20065;-52
2022/02/02 12:09:29;;;;;;;12.23;4.65;;;10.90;99.90;;;;;;5033843;28;20022;-52
2022/02/02 12:21:30;;;;;;;10.65;4.90;;;11.00;99.90;;;;;;5034999;28;20107;-53
2022/02/02 12:46:04;;;;;;;9.55;4.47;;;11.00;99.90;;;;;;5033374;28;20060;-52
2022/02/02 12:48:18;;;;;;;13.30;5.05;;;11.00;99.90;;;;;;5032317;28;20034;-53
2022/02/02 12:53:47;;;;;;;10.70;4.50;;;11.10;99.90;;;;;;5033168;28;20399;-54
2022/02/02 12:56:37;;;;;;;9.20;4.57;;;11.10;99.90;;;;;;5033588;28;20040;-55
2022/02/02 13:02:09;;;;;;;;;;;10.90;99.90;;;;;;5033541;28;20056;-55
2022/02/02 13:04:36;;;;;;;7.32;5.38;;;11.00;99.90;;;;;;5032795;28;19909;-55
2022/02/02 13:07:17;;;;;;;8.15;5.00;;;11.10;99.90;;;;;;5014769;28;20109;-53
2022/02/02 13:09:47;;;;;;;7.97;4.22;;;11.20;99.90;;;;;;5033039;28;20049;-54
2022/02/02 13:15:27;;;;;;;6.03;3.90;;;11.20;99.90;;;;;;5033302;28;20031;-53
2022/02/02 13:18:19;;;;;;;7.35;4.13;;;11.10;99.90;;;;;;5032711;28;20068;-56
2022/02/02 13:20:55;;;;;;;8.77;4.32;;;11.00;99.90;;;;;;5031833;28;20025;-57
2022/02/02 13:26:27;;;;;;;10.73;5.00;;;10.80;99.90;;;;;;5013555;28;20076;-57
2022/02/02 13:29:13;;;;;;;11.35;6.13;;;10.90;99.90;;;;;;5012035;28;20121;-58
2022/02/02 13:32:01;;;;;;;11.98;6.63;;;10.90;99.90;;;;;;5013625;28;20030;-57
2022/02/02 13:48:00;;;;;;;7.82;5.38;;;10.80;99.90;;;;;;5013256;28;20041;-57
2022/02/02 13:53:35;;;;;;;;;;;10.70;99.90;;;;;;5013608;28;20065;-56
2022/02/02 14:04:28;;;;;;;13.68;5.63;;;10.70;99.90;;;;;;5012352;28;20029;-55
2022/02/02 14:31:23;;;;;;;11.18;6.97;;;10.40;99.90;;;;;;5011826;28;20048;-54
2022/02/02 14:33:52;;;;;;;12.45;7.00;;;10.40;99.90;;;;;;5012251;28;20492;-53
2022/02/02 14:36:22;;;;;;;12.25;7.13;;;10.30;99.90;;;;;;5011944;28;20060;-53
2022/02/02 14:39:15;;;;;;;13.95;7.75;;;10.20;99.90;;;;;;5011606;28;20476;-55
2022/02/02 14:41:46;;;;;;;10.25;6.88;;;10.20;99.90;;;;;;5011248;28;20392;-54
2022/02/02 14:44:24;;;;;;;11.98;7.63;;;10.20;99.90;;;;;;5012147;28;20468;-56
2022/02/02 14:52:00;;;;;;;12.00;7.80;;;10.30;99.90;;;;;;5011583;28;20076;-56
2022/02/02 14:55:09;;;;;;;12.77;7.78;;;10.30;99.90;;;;;;5011446;28;20442;-57
2022/02/02 15:27:23;;;;;;;15.10;11.57;;;10.40;99.90;;;;;;5011444;28;20041;-54
2022/02/02 15:32:18;;;;;;;16.67;11.13;;;10.30;99.90;;;;;;5011377;28;20026;-55
2022/02/02 15:34:53;;;;;;;25.83;15.60;;;10.20;99.90;;;;;;5010129;28;20043;-53
2022/02/02 15:37:44;;;;;;;31.60;17.90;;;10.20;99.90;;;;;;5011162;28;20670;-55
2022/02/02 15:40:14;;;;;;;61.33;41.83;;;10.20;99.90;;;;;;5011569;28;20050;-54
2022/02/02 15:59:04;;;;;;;14.63;10.80;;;10.10;99.90;;;;;;5011021;28;20497;-53
2022/02/02 16:04:21;;;;;;;31.52;19.42;;;10.10;99.90;;;;;;5011837;28;20029;-53
2022/02/02 16:06:48;;;;;;;26.45;22.52;;;10.10;99.90;;;;;;5012793;28;20026;-52
2022/02/02 16:09:24;;;;;;;20.08;17.85;;;10.10;99.90;;;;;;5010955;28;20030;-53
2022/02/02 16:15:20;;;;;;;15.90;10.15;;;10.10;99.90;;;;;;4950375;29;20084;-54
2022/02/02 16:31:32;;;;;;;21.27;13.95;;;9.90;99.90;;;;;;5014642;28;20041;-52
2022/02/02 16:36:39;;;;;;;18.08;11.63;;;9.70;99.90;;;;;;5013406;28;20037;-52
2022/02/02 16:39:15;;;;;;;18.05;11.07;;;9.70;99.90;;;;;;5014249;28;20030;-55
2022/02/02 16:44:25;;;;;;;19.10;11.90;;;9.60;99.90;;;;;;5014797;28;20087;-52
2022/02/02 16:46:52;;;;;;;18.85;12.30;;;9.50;99.90;;;;;;5013846;28;20033;-51
2022/02/02 16:49:18;;;;;;;20.20;13.38;;;9.50;99.90;;;;;;5014591;28;20026;-52
2022/02/02 16:51:44;;;;;;;20.65;13.57;;;9.50;99.90;;;;;;5014339;28;20025;-51
2022/02/02 16:54:20;;;;;;;21.63;12.80;;;9.50;99.90;;;;;;5014690;28;20032;-52
2022/02/02 17:34:34;;;;;;;16.20;10.63;;;9.30;99.90;;;;;;5013642;28;20030;-51
2022/02/02 17:37:13;;;;;;;11.45;9.82;;;9.30;99.90;;;;;;5012531;28;20487;-51
2022/02/02 17:39:57;;;;;;;13.90;10.32;;;9.30;99.90;;;;;;5013677;28;20056;-52
2022/02/02 18:12:23;;;;;;;12.40;8.57;;;9.50;99.90;;;;;;5012595;28;20073;-51
2022/02/02 18:20:08;;;;;;;11.13;10.02;;;9.50;99.90;;;;;;5012373;28;20041;-51
2022/02/02 18:22:40;;;;;;;13.43;8.57;;;9.50;99.90;;;;;;5012509;28;20026;-51
2022/02/02 18:25:34;;;;;;;16.23;9.05;;;9.50;99.90;;;;;;5012214;28;20575;-51
2022/02/02 18:28:09;;;;;;;9.43;8.15;;;9.50;99.90;;;;;;5012234;28;20025;-51
2022/02/02 18:31:04;;;;;;;10.20;8.52;;;9.50;99.90;;;;;;5012250;28;20077;-52
2022/02/02 18:44:21;;;;;;;13.07;10.55;;;9.50;99.90;;;;;;5012085;28;20026;-52
2022/02/02 18:46:49;;;;;;;10.90;9.38;;;9.60;99.90;;;;;;5011223;28;20034;-51
2022/02/02 18:59:59;;;;;;;13.00;10.53;;;9.60;99.90;;;;;;5011898;28;20112;-50
2022/02/02 20:11:42;;;;;;;39.42;29.77;;;9.40;99.90;;;;;;5014760;28;20029;-51
2022/02/02 20:14:09;;;;;;;43.03;30.35;;;9.40;99.90;;;;;;5014846;28;20544;-51
2022/02/02 20:16:38;;;;;;;39.25;28.52;;;9.40;99.90;;;;;;5014699;28;20026;-51
2022/02/02 20:19:08;;;;;;;47.40;30.58;;;9.40;99.90;;;;;;5014728;28;20028;-51
2022/02/02 20:21:38;;;;;;;38.83;28.67;;;9.40;99.90;;;;;;5014533;28;20030;-51
2022/02/02 20:24:06;;;;;;;44.97;30.27;;;9.40;99.90;;;;;;5015301;28;20375;-51
2022/02/02 20:26:34;;;;;;;39.88;28.98;;;9.40;99.90;;;;;;5015449;28;20034;-50
2022/02/02 20:29:02;;;;;;;44.42;29.88;;;9.40;99.90;;;;;;5015062;28;20026;-50
2022/02/02 20:31:29;;;;;;;46.58;30.65;;;9.30;99.90;;;;;;5014974;28;20057;-51
2022/02/02 20:33:58;;;;;;;41.63;28.23;;;9.30;99.90;;;;;;5015362;28;20022;-50
2022/02/02 20:36:24;;;;;;;35.85;25.27;;;9.30;99.90;;;;;;5014485;28;20030;-51
2022/02/02 20:38:50;;;;;;;41.83;28.33;;;9.30;99.90;;;;;;5015133;28;20028;-51
2022/02/02 20:41:16;;;;;;;40.63;28.83;;;9.30;99.90;;;;;;5014869;28;20234;-51
2022/02/02 21:10:29;;;;;;;36.53;24.52;;;9.20;99.90;;;;;;5014405;28;20022;-51
2022/02/02 21:15:40;;;;;;;39.53;28.52;;;9.30;99.90;;;;;;5015132;28;20044;-51
2022/02/02 21:18:14;;;;;;;39.30;27.27;;;9.30;99.90;;;;;;5016003;28;20060;-51
2022/02/02 21:20:52;;;;;;;43.47;28.17;;;9.30;99.90;;;;;;5022981;28;20029;-50
2022/02/02 21:26:12;;;;;;;47.92;29.10;;;9.30;99.90;;;;;;5014181;28;20507;-50
2022/02/02 21:28:36;;;;;;;45.05;28.60;;;9.30;99.90;;;;;;5013605;28;20080;-51
2022/02/02 21:31:03;;;;;;;36.83;26.13;;;9.30;99.90;;;;;;5013969;28;20101;-52
2022/02/02 21:33:29;;;;;;;41.28;27.65;;;9.20;99.90;;;;;;5014034;28;20053;-51
2022/02/02 21:35:56;;;;;;;38.85;25.48;;;9.20;99.90;;;;;;5013981;28;20487;-50
2022/02/02 21:40:56;;;;;;;37.05;23.52;;;9.20;99.90;;;;;;5013676;28;20022;-50
2022/02/02 21:43:23;;;;;;;35.78;24.40;;;9.20;99.90;;;;;;5013769;28;20057;-51
2022/02/02 21:45:49;;;;;;;31.38;22.60;;;9.20;99.90;;;;;;5013960;28;20037;-50
2022/02/02 21:48:15;;;;;;;35.67;21.48;;;9.20;99.90;;;;;;5013454;28;20030;-50
2022/02/02 21:50:47;;;;;;;29.67;20.42;;;9.20;99.90;;;;;;5013694;28;20029;-50
2022/02/02 21:53:14;;;;;;;33.15;19.98;;;9.20;99.90;;;;;;5013851;28;20022;-50
2022/02/02 21:55:40;;;;;;;30.13;19.00;;;9.20;99.90;;;;;;5013533;28;20152;-51
2022/02/02 21:58:06;;;;;;;32.42;18.67;;;9.20;99.90;;;;;;5013190;28;20037;-50
2022/02/02 22:00:31;;;;;;;26.73;15.02;;;9.20;99.90;;;;;;5013114;28;20025;-50
2022/02/02 22:02:57;;;;;;;26.23;16.25;;;9.10;99.90;;;;;;5012904;28;20485;-50
2022/02/02 22:05:23;;;;;;;19.10;12.20;;;9.10;99.90;;;;;;5013961;28;20388;-50
2022/02/02 22:07:49;;;;;;;23.17;14.38;;;9.20;99.90;;;;;;5013063;28;20029;-50
2022/02/02 22:10:16;;;;;;;22.75;13.25;;;9.10;99.90;;;;;;5011735;28;20025;-50
2022/02/02 22:12:42;;;;;;;19.35;12.20;;;9.10;99.90;;;;;;5012332;28;20026;-50
2022/02/02 22:15:18;;;;;;;18.48;13.70;;;9.00;99.90;;;;;;5013270;28;20535;-51
2022/02/02 22:17:45;;;;;;;18.77;13.70;;;9.10;99.90;;;;;;5013023;28;20105;-51
2022/02/02 22:20:14;;;;;;;20.63;13.68;;;9.00;99.90;;;;;;5013237;28;20028;-50
2022/02/02 22:22:41;;;;;;;21.25;12.90;;;9.00;99.90;;;;;;5011071;28;20026;-50
2022/02/02 22:25:08;;;;;;;18.83;11.95;;;9.00;99.90;;;;;;5013225;28;20018;-50
2022/02/02 22:27:34;;;;;;;19.27;12.82;;;8.90;99.90;;;;;;5012870;28;20032;-51
2022/02/02 22:30:00;;;;;;;21.10;13.10;;;8.90;99.90;;;;;;5012850;28;20054;-50
2022/02/02 22:32:25;;;;;;;18.73;12.43;;;8.90;99.90;;;;;;5012877;28;20022;-51
2022/02/02 22:34:51;;;;;;;20.48;12.35;;;8.80;99.90;;;;;;5013201;28;20018;-51
2022/02/02 22:37:17;;;;;;;18.63;11.20;;;8.90;99.90;;;;;;5013505;28;20034;-51
2022/02/02 22:39:44;;;;;;;16.65;11.10;;;8.90;99.90;;;;;;5012236;28;20025;-50
2022/02/02 22:42:12;;;;;;;19.75;10.75;;;8.80;99.90;;;;;;5011749;28;20041;-51
2022/02/02 22:44:39;;;;;;;16.33;10.48;;;8.80;99.90;;;;;;5012453;28;20112;-49
2022/02/02 22:47:07;;;;;;;20.85;10.85;;;8.80;99.90;;;;;;5012825;28;20056;-50
2022/02/02 22:49:35;;;;;;;13.57;9.38;;;8.80;99.90;;;;;;5012085;28;20105;-50
2022/02/02 22:52:01;;;;;;;14.80;9.57;;;8.90;99.90;;;;;;5012031;28;20088;-50
2022/02/02 22:54:27;;;;;;;14.43;8.75;;;8.80;99.90;;;;;;5010842;28;20030;-50
2022/02/02 22:56:53;;;;;;;17.75;9.63;;;8.90;99.90;;;;;;5011542;28;20060;-50
2022/02/02 22:59:18;;;;;;;11.82;7.53;;;8.80;99.90;;;;;;5012850;28;20398;-50
2022/02/02 23:01:51;;;;;;;14.95;8.07;;;8.80;99.90;;;;;;5012367;28;20034;-51
2022/02/02 23:04:16;;;;;;;14.32;7.90;;;8.80;99.90;;;;;;5011088;28;20555;-50
2022/02/02 23:06:42;;;;;;;11.63;6.90;;;8.90;99.90;;;;;;5012750;28;20065;-50
2022/02/02 23:09:09;;;;;;;16.67;8.18;;;8.80;99.90;;;;;;5012441;28;20069;-50
2022/02/02 23:11:35;;;;;;;14.32;7.47;;;8.80;99.90;;;;;;5012101;28;20026;-50
2022/02/02 23:14:01;;;;;;;14.57;7.72;;;8.90;99.90;;;;;;5012048;28;20687;-49
2022/02/02 23:16:33;;;;;;;11.68;7.50;;;8.80;99.90;;;;;;5011670;28;20061;-50
2022/02/02 23:18:59;;;;;;;13.57;7.43;;;8.80;99.90;;;;;;5012091;28;20222;-51
2022/02/02 23:21:25;;;;;;;14.88;7.88;;;8.80;99.90;;;;;;5011690;28;20395;-50
2022/02/02 23:23:57;;;;;;;15.57;8.30;;;8.80;99.90;;;;;;5012541;28;20091;-50
2022/02/02 23:26:24;;;;;;;18.48;8.68;;;8.80;99.90;;;;;;5012320;28;20320;-50
2022/02/02 23:28:54;;;;;;;15.20;7.97;;;8.90;99.90;;;;;;5011758;28;20030;-50
2022/02/02 23:31:20;;;;;;;18.27;9.48;;;8.90;99.90;;;;;;5011828;28;20060;-50
2022/02/02 23:33:47;;;;;;;13.40;7.78;;;8.90;99.90;;;;;;5014658;28;20037;-51
2022/02/02 23:36:13;;;;;;;16.85;7.70;;;8.90;99.90;;;;;;5016004;28;20050;-50
2022/02/02 23:38:40;;;;;;;10.85;6.68;;;8.90;99.90;;;;;;5015894;28;20110;-50
2022/02/02 23:43:49;;;;;;;12.40;6.65;;;8.80;99.90;;;;;;5016055;28;20030;-50
2022/02/02 23:46:18;;;;;;;10.13;5.75;;;8.80;99.90;;;;;;5015220;28;20048;-50
2022/02/02 23:48:47;;;;;;;11.38;5.65;;;8.80;99.90;;;;;;5015572;28;20034;-50
2022/02/02 23:51:21;;;;;;;13.18;5.80;;;8.80;99.90;;;;;;5015396;28;20018;-50
2022/02/02 23:53:47;;;;;;;10.55;5.03;;;8.80;99.90;;;;;;5015587;28;20030;-50
2022/02/02 23:56:22;;;;;;;15.77;5.00;;;8.70;99.90;;;;;;5015292;28;20301;-50
2022/02/02 23:58:53;;;;;;;9.80;4.28;;;8.70;99.90;;;;;;5015178;28;20025;-50
